sensor_id;sensor_type;location;lat;lon;timestamp;temperature;humidity
10030;DHT22;5055;52.054;8.524;2024-02-23T00:01:28;8.90;97.00
10030;DHT22;5055;52.054;8.524;2024-02-23T00:03:56;8.90;97.00
10030;DHT22;5055;52.054;8.524;2024-02-23T00:06:25;8.80;97.00
10030;DHT22;5055;52.054;8.524;2024-02-23T00:08:55;8.80;97.00
10030;DHT22;5055;52.054;8.524;2024-02-23T00:11:23;8.70;97.00
10030;DHT22;5055;52.054;8.524;2024-02-23T00:13:52;8.70;97.00
10030;DHT22;5055;52.054;8.524;2024-02-23T00:16:20;8.60;97.00
10030;DHT22;5055;52.054;8.524;2024-02-23T00:18:48;8.50;97.00
10030;DHT22;5055;52.054;8.524;2024-02-23T00:21:16;8.40;97.00
10030;DHT22;5055;52.054;8.524;2024-02-23T00:23:45;8.30;97.00
10030;DHT22;5055;52.054;8.524;2024-02-23T00:26:13;8.20;97.00
10030;DHT22;5055;52.054;8.524;2024-02-23T00:28:42;8.10;97.00
10030;DHT22;5055;52.054;8.524;2024-02-23T00:31:10;8.00;97.00
10030;DHT22;5055;52.054;8.524;2024-02-23T00:33:38;7.80;97.00
10030;DHT22;5055;52.054;8.524;2024-02-23T00:36:09;7.60;97.00
10030;DHT22;5055;52.054;8.524;2024-02-23T00:38:37;7.50;97.00
10030;DHT22;5055;52.054;8.524;2024-02-23T00:41:06;7.40;97.00
10030;DHT22;5055;52.054;8.524;2024-02-23T00:43:38;7.20;97.00
10030;DHT22;5055;52.054;8.524;2024-02-23T00:46:07;7.00;97.00
10030;DHT22;5055;52.054;8.524;2024-02-23T00:48:35;6.70;97.00
10030;DHT22;5055;52.054;8.524;2024-02-23T00:51:03;6.60;97.00
10030;DHT22;5055;52.054;8.524;2024-02-23T00:53:32;6.50;97.00
10030;DHT22;5055;52.054;8.524;2024-02-23T00:56:00;6.30;97.00
10030;DHT22;5055;52.054;8.524;2024-02-23T00:58:29;6.20;97.00
10030;DHT22;5055;52.054;8.524;2024-02-23T01:00:59;6.10;97.00
10030;DHT22;5055;52.054;8.524;2024-02-23T01:03:27;6.00;97.00
10030;DHT22;5055;52.054;8.524;2024-02-23T01:05:55;5.90;97.00
10030;DHT22;5055;52.054;8.524;2024-02-23T01:08:24;5.90;97.00
10030;DHT22;5055;52.054;8.524;2024-02-23T01:10:52;5.80;97.00
10030;DHT22;5055;52.054;8.524;2024-02-23T01:13:20;5.80;97.00
10030;DHT22;5055;52.054;8.524;2024-02-23T01:15:50;5.70;97.00
10030;DHT22;5055;52.054;8.524;2024-02-23T01:18:20;5.70;97.00
10030;DHT22;5055;52.054;8.524;2024-02-23T01:20:49;5.60;97.00
10030;DHT22;5055;52.054;8.524;2024-02-23T01:23:17;5.60;97.00
10030;DHT22;5055;52.054;8.524;2024-02-23T01:25:45;5.60;97.00
10030;DHT22;5055;52.054;8.524;2024-02-23T01:28:13;5.50;97.00
10030;DHT22;5055;52.054;8.524;2024-02-23T01:30:41;5.50;97.00
10030;DHT22;5055;52.054;8.524;2024-02-23T01:33:11;5.50;97.00
10030;DHT22;5055;52.054;8.524;2024-02-23T01:35:39;5.50;97.00
10030;DHT22;5055;52.054;8.524;2024-02-23T01:38:07;5.50;97.00
10030;DHT22;5055;52.054;8.524;2024-02-23T01:40:35;5.50;97.00
10030;DHT22;5055;52.054;8.524;2024-02-23T01:43:04;5.50;97.00
10030;DHT22;5055;52.054;8.524;2024-02-23T01:45:32;5.50;97.00
10030;DHT22;5055;52.054;8.524;2024-02-23T01:48:01;5.50;97.00
10030;DHT22;5055;52.054;8.524;2024-02-23T01:50:30;5.50;97.00
10030;DHT22;5055;52.054;8.524;2024-02-23T01:53:01;5.50;97.00
10030;DHT22;5055;52.054;8.524;2024-02-23T01:55:31;5.50;97.00
10030;DHT22;5055;52.054;8.524;2024-02-23T01:58:03;5.50;97.00
10030;DHT22;5055;52.054;8.524;2024-02-23T02:00:35;5.50;97.00
10030;DHT22;5055;52.054;8.524;2024-02-23T02:03:04;5.40;97.00
10030;DHT22;5055;52.054;8.524;2024-02-23T02:05:38;5.50;97.00
10030;DHT22;5055;52.054;8.524;2024-02-23T02:08:07;5.50;97.00
10030;DHT22;5055;52.054;8.524;2024-02-23T02:10:35;5.50;97.00
10030;DHT22;5055;52.054;8.524;2024-02-23T02:13:04;5.50;97.00
10030;DHT22;5055;52.054;8.524;2024-02-23T02:15:32;5.40;97.00
10030;DHT22;5055;52.054;8.524;2024-02-23T02:18:00;5.40;97.00
10030;DHT22;5055;52.054;8.524;2024-02-23T02:20:32;5.40;97.00
10030;DHT22;5055;52.054;8.524;2024-02-23T02:23:02;5.40;97.00
10030;DHT22;5055;52.054;8.524;2024-02-23T02:25:30;5.40;97.00
10030;DHT22;5055;52.054;8.524;2024-02-23T02:27:58;5.40;97.00
10030;DHT22;5055;52.054;8.524;2024-02-23T02:30:26;5.40;97.00
10030;DHT22;5055;52.054;8.524;2024-02-23T02:32:55;5.40;97.00
10030;DHT22;5055;52.054;8.524;2024-02-23T02:35:23;5.40;97.00
10030;DHT22;5055;52.054;8.524;2024-02-23T02:37:51;5.40;97.00
10030;DHT22;5055;52.054;8.524;2024-02-23T02:40:20;5.30;97.00
10030;DHT22;5055;52.054;8.524;2024-02-23T02:42:49;5.30;97.00
10030;DHT22;5055;52.054;8.524;2024-02-23T02:45:17;5.30;97.00
10030;DHT22;5055;52.054;8.524;2024-02-23T02:47:47;5.30;97.00
10030;DHT22;5055;52.054;8.524;2024-02-23T02:50:15;5.30;97.00
10030;DHT22;5055;52.054;8.524;2024-02-23T02:52:43;5.30;97.00
10030;DHT22;5055;52.054;8.524;2024-02-23T02:55:12;5.40;97.00
10030;DHT22;5055;52.054;8.524;2024-02-23T02:57:41;5.40;97.00
10030;DHT22;5055;52.054;8.524;2024-02-23T03:00:11;5.40;97.00
10030;DHT22;5055;52.054;8.524;2024-02-23T03:02:39;5.50;97.00
10030;DHT22;5055;52.054;8.524;2024-02-23T03:05:08;5.50;97.00
10030;DHT22;5055;52.054;8.524;2024-02-23T03:07:36;5.60;97.00
10030;DHT22;5055;52.054;8.524;2024-02-23T03:10:05;5.60;97.00
10030;DHT22;5055;52.054;8.524;2024-02-23T03:12:34;5.60;97.00
10030;DHT22;5055;52.054;8.524;2024-02-23T03:15:04;5.70;97.00
10030;DHT22;5055;52.054;8.524;2024-02-23T03:17:33;5.60;97.00
10030;DHT22;5055;52.054;8.524;2024-02-23T03:20:01;5.70;97.00
10030;DHT22;5055;52.054;8.524;2024-02-23T03:22:32;5.70;97.00
10030;DHT22;5055;52.054;8.524;2024-02-23T03:25:00;5.70;97.00
10030;DHT22;5055;52.054;8.524;2024-02-23T03:27:36;5.70;97.00
10030;DHT22;5055;52.054;8.524;2024-02-23T03:30:06;5.70;97.00
10030;DHT22;5055;52.054;8.524;2024-02-23T03:32:35;5.80;97.00
10030;DHT22;5055;52.054;8.524;2024-02-23T03:35:06;5.80;97.00
10030;DHT22;5055;52.054;8.524;2024-02-23T03:37:35;5.80;97.00
10030;DHT22;5055;52.054;8.524;2024-02-23T03:40:04;5.90;97.00
10030;DHT22;5055;52.054;8.524;2024-02-23T03:42:32;5.90;97.00
10030;DHT22;5055;52.054;8.524;2024-02-23T03:45:00;5.90;97.00
10030;DHT22;5055;52.054;8.524;2024-02-23T03:47:30;5.90;97.00
10030;DHT22;5055;52.054;8.524;2024-02-23T03:49:58;5.90;97.00
10030;DHT22;5055;52.054;8.524;2024-02-23T03:52:26;5.90;97.00
10030;DHT22;5055;52.054;8.524;2024-02-23T03:54:54;6.00;97.00
10030;DHT22;5055;52.054;8.524;2024-02-23T03:57:23;6.00;97.00
10030;DHT22;5055;52.054;8.524;2024-02-23T03:59:54;6.00;97.00
10030;DHT22;5055;52.054;8.524;2024-02-23T04:02:23;6.00;97.00
10030;DHT22;5055;52.054;8.524;2024-02-23T04:04:52;6.00;97.00
10030;DHT22;5055;52.054;8.524;2024-02-23T04:07:21;6.00;97.00
10030;DHT22;5055;52.054;8.524;2024-02-23T04:09:49;6.00;97.00
10030;DHT22;5055;52.054;8.524;2024-02-23T04:12:19;6.00;97.00
10030;DHT22;5055;52.054;8.524;2024-02-23T04:14:47;6.00;97.00
10030;DHT22;5055;52.054;8.524;2024-02-23T04:17:16;6.00;97.00
10030;DHT22;5055;52.054;8.524;2024-02-23T04:19:44;5.90;97.00
10030;DHT22;5055;52.054;8.524;2024-02-23T04:22:14;5.90;97.00
10030;DHT22;5055;52.054;8.524;2024-02-23T04:24:42;6.00;97.00
10030;DHT22;5055;52.054;8.524;2024-02-23T04:27:10;5.90;97.00
10030;DHT22;5055;52.054;8.524;2024-02-23T04:29:38;5.90;97.00
10030;DHT22;5055;52.054;8.524;2024-02-23T04:32:06;5.90;97.00
10030;DHT22;5055;52.054;8.524;2024-02-23T04:34:35;5.90;97.00
10030;DHT22;5055;52.054;8.524;2024-02-23T04:37:03;5.90;97.00
10030;DHT22;5055;52.054;8.524;2024-02-23T04:39:32;5.90;97.00
10030;DHT22;5055;52.054;8.524;2024-02-23T04:42:01;5.80;97.00
10030;DHT22;5055;52.054;8.524;2024-02-23T04:44:29;5.80;97.00
10030;DHT22;5055;52.054;8.524;2024-02-23T04:46:57;5.80;97.00
10030;DHT22;5055;52.054;8.524;2024-02-23T04:49:25;5.80;97.00
10030;DHT22;5055;52.054;8.524;2024-02-23T04:51:54;5.70;97.00
10030;DHT22;5055;52.054;8.524;2024-02-23T04:54:22;5.70;97.00
10030;DHT22;5055;52.054;8.524;2024-02-23T04:56:52;5.80;97.00
10030;DHT22;5055;52.054;8.524;2024-02-23T04:59:20;5.80;97.00
10030;DHT22;5055;52.054;8.524;2024-02-23T05:01:48;5.80;97.00
10030;DHT22;5055;52.054;8.524;2024-02-23T05:04:17;5.90;97.00
10030;DHT22;5055;52.054;8.524;2024-02-23T05:06:45;5.90;97.00
10030;DHT22;5055;52.054;8.524;2024-02-23T05:09:13;5.90;97.00
10030;DHT22;5055;52.054;8.524;2024-02-23T05:11:41;5.90;97.00
10030;DHT22;5055;52.054;8.524;2024-02-23T05:14:11;5.90;97.00
10030;DHT22;5055;52.054;8.524;2024-02-23T05:16:39;5.90;97.00
10030;DHT22;5055;52.054;8.524;2024-02-23T05:19:07;5.90;97.00
10030;DHT22;5055;52.054;8.524;2024-02-23T05:21:36;5.90;97.00
10030;DHT22;5055;52.054;8.524;2024-02-23T05:24:04;5.90;97.00
10030;DHT22;5055;52.054;8.524;2024-02-23T05:26:33;5.90;97.00
10030;DHT22;5055;52.054;8.524;2024-02-23T05:29:01;5.90;97.00
10030;DHT22;5055;52.054;8.524;2024-02-23T05:31:46;5.90;97.00
10030;DHT22;5055;52.054;8.524;2024-02-23T05:34:14;5.90;97.00
10030;DHT22;5055;52.054;8.524;2024-02-23T05:36:43;5.90;97.00
10030;DHT22;5055;52.054;8.524;2024-02-23T05:39:12;5.90;97.00
10030;DHT22;5055;52.054;8.524;2024-02-23T05:41:42;5.90;97.00
10030;DHT22;5055;52.054;8.524;2024-02-23T05:44:10;5.90;97.00
10030;DHT22;5055;52.054;8.524;2024-02-23T05:46:44;5.90;97.00
10030;DHT22;5055;52.054;8.524;2024-02-23T05:49:12;5.80;97.00
10030;DHT22;5055;52.054;8.524;2024-02-23T05:51:40;5.90;97.00
10030;DHT22;5055;52.054;8.524;2024-02-23T05:54:08;5.90;97.00
10030;DHT22;5055;52.054;8.524;2024-02-23T05:56:37;5.90;97.00
10030;DHT22;5055;52.054;8.524;2024-02-23T05:59:05;5.90;97.00
10030;DHT22;5055;52.054;8.524;2024-02-23T06:01:34;5.90;97.00
10030;DHT22;5055;52.054;8.524;2024-02-23T06:04:04;5.90;97.00
10030;DHT22;5055;52.054;8.524;2024-02-23T06:06:32;5.90;97.00
10030;DHT22;5055;52.054;8.524;2024-02-23T06:09:01;5.90;97.00
10030;DHT22;5055;52.054;8.524;2024-02-23T06:11:30;5.90;97.00
10030;DHT22;5055;52.054;8.524;2024-02-23T06:13:58;5.90;97.00
10030;DHT22;5055;52.054;8.524;2024-02-23T06:16:26;6.00;97.00
10030;DHT22;5055;52.054;8.524;2024-02-23T06:18:55;5.90;97.00
10030;DHT22;5055;52.054;8.524;2024-02-23T06:21:24;5.90;97.00
10030;DHT22;5055;52.054;8.524;2024-02-23T06:23:53;5.90;97.00
10030;DHT22;5055;52.054;8.524;2024-02-23T06:26:21;5.90;97.00
10030;DHT22;5055;52.054;8.524;2024-02-23T06:28:50;5.90;97.00
10030;DHT22;5055;52.054;8.524;2024-02-23T06:31:18;5.90;97.00
10030;DHT22;5055;52.054;8.524;2024-02-23T06:33:46;5.90;97.00
10030;DHT22;5055;52.054;8.524;2024-02-23T06:36:16;5.90;97.00
10030;DHT22;5055;52.054;8.524;2024-02-23T06:38:46;5.90;97.00
10030;DHT22;5055;52.054;8.524;2024-02-23T06:41:14;5.80;97.00
10030;DHT22;5055;52.054;8.524;2024-02-23T06:43:43;5.90;97.00
10030;DHT22;5055;52.054;8.524;2024-02-23T06:46:11;5.80;97.00
10030;DHT22;5055;52.054;8.524;2024-02-23T06:48:40;5.80;97.00
10030;DHT22;5055;52.054;8.524;2024-02-23T06:51:08;5.80;97.00
10030;DHT22;5055;52.054;8.524;2024-02-23T06:53:37;5.70;97.00
10030;DHT22;5055;52.054;8.524;2024-02-23T06:56:07;5.70;97.00
10030;DHT22;5055;52.054;8.524;2024-02-23T06:58:35;5.70;97.00
10030;DHT22;5055;52.054;8.524;2024-02-23T07:01:03;5.70;97.00
10030;DHT22;5055;52.054;8.524;2024-02-23T07:03:33;5.80;97.00
10030;DHT22;5055;52.054;8.524;2024-02-23T07:06:02;5.80;97.00
10030;DHT22;5055;52.054;8.524;2024-02-23T07:08:31;5.80;97.00
10030;DHT22;5055;52.054;8.524;2024-02-23T07:10:59;5.80;97.00
10030;DHT22;5055;52.054;8.524;2024-02-23T07:13:29;5.90;97.00
10030;DHT22;5055;52.054;8.524;2024-02-23T07:15:58;5.90;97.00
10030;DHT22;5055;52.054;8.524;2024-02-23T07:18:28;6.00;97.00
10030;DHT22;5055;52.054;8.524;2024-02-23T07:20:56;6.20;97.00
10030;DHT22;5055;52.054;8.524;2024-02-23T07:23:24;6.40;97.00
10030;DHT22;5055;52.054;8.524;2024-02-23T07:25:53;6.60;97.00
10030;DHT22;5055;52.054;8.524;2024-02-23T07:28:21;6.60;97.00
10030;DHT22;5055;52.054;8.524;2024-02-23T07:30:51;6.80;97.00
10030;DHT22;5055;52.054;8.524;2024-02-23T07:33:20;6.90;97.00
10030;DHT22;5055;52.054;8.524;2024-02-23T07:35:48;7.00;97.00
10030;DHT22;5055;52.054;8.524;2024-02-23T07:38:17;7.10;97.00
10030;DHT22;5055;52.054;8.524;2024-02-23T07:40:46;7.30;97.00
10030;DHT22;5055;52.054;8.524;2024-02-23T07:43:14;7.20;97.00
10030;DHT22;5055;52.054;8.524;2024-02-23T07:45:43;7.20;97.00
10030;DHT22;5055;52.054;8.524;2024-02-23T07:48:13;7.30;97.00
10030;DHT22;5055;52.054;8.524;2024-02-23T07:50:41;7.40;97.00
10030;DHT22;5055;52.054;8.524;2024-02-23T07:53:09;7.60;97.00
10030;DHT22;5055;52.054;8.524;2024-02-23T07:55:37;7.50;97.00
10030;DHT22;5055;52.054;8.524;2024-02-23T07:58:06;7.50;97.00
10030;DHT22;5055;52.054;8.524;2024-02-23T08:00:34;7.80;97.00
10030;DHT22;5055;52.054;8.524;2024-02-23T08:03:05;7.90;97.00
10030;DHT22;5055;52.054;8.524;2024-02-23T08:05:36;8.00;97.00
10030;DHT22;5055;52.054;8.524;2024-02-23T08:08:05;8.20;97.00
10030;DHT22;5055;52.054;8.524;2024-02-23T08:10:34;8.30;97.00
10030;DHT22;5055;52.054;8.524;2024-02-23T08:13:03;8.30;97.00
10030;DHT22;5055;52.054;8.524;2024-02-23T08:15:32;8.40;97.00
10030;DHT22;5055;52.054;8.524;2024-02-23T08:18:02;8.60;97.00
10030;DHT22;5055;52.054;8.524;2024-02-23T08:20:31;8.40;97.00
10030;DHT22;5055;52.054;8.524;2024-02-23T08:23:01;8.50;97.00
10030;DHT22;5055;52.054;8.524;2024-02-23T08:25:30;8.60;97.00
10030;DHT22;5055;52.054;8.524;2024-02-23T08:27:58;8.80;97.00
10030;DHT22;5055;52.054;8.524;2024-02-23T08:30:26;8.80;97.00
10030;DHT22;5055;52.054;8.524;2024-02-23T08:32:55;8.80;97.00
10030;DHT22;5055;52.054;8.524;2024-02-23T08:35:23;8.90;97.00
10030;DHT22;5055;52.054;8.524;2024-02-23T08:37:51;9.20;97.00
10030;DHT22;5055;52.054;8.524;2024-02-23T08:40:22;9.40;97.00
10030;DHT22;5055;52.054;8.524;2024-02-23T08:42:50;9.50;97.00
10030;DHT22;5055;52.054;8.524;2024-02-23T08:45:18;9.60;97.00
10030;DHT22;5055;52.054;8.524;2024-02-23T08:47:46;9.80;97.00
10030;DHT22;5055;52.054;8.524;2024-02-23T08:50:15;9.60;97.00
10030;DHT22;5055;52.054;8.524;2024-02-23T08:52:43;9.70;97.00
10030;DHT22;5055;52.054;8.524;2024-02-23T08:55:12;9.80;97.00
10030;DHT22;5055;52.054;8.524;2024-02-23T08:57:41;9.80;97.00
10030;DHT22;5055;52.054;8.524;2024-02-23T09:00:11;10.00;97.00
10030;DHT22;5055;52.054;8.524;2024-02-23T09:02:43;9.40;97.00
10030;DHT22;5055;52.054;8.524;2024-02-23T09:05:11;9.10;97.00
10030;DHT22;5055;52.054;8.524;2024-02-23T09:07:40;9.10;97.00
10030;DHT22;5055;52.054;8.524;2024-02-23T09:10:09;8.80;97.00
10030;DHT22;5055;52.054;8.524;2024-02-23T09:12:42;8.50;97.00
10030;DHT22;5055;52.054;8.524;2024-02-23T09:15:10;8.50;97.00
10030;DHT22;5055;52.054;8.524;2024-02-23T09:17:40;8.40;97.00
10030;DHT22;5055;52.054;8.524;2024-02-23T09:20:10;8.30;97.00
10030;DHT22;5055;52.054;8.524;2024-02-23T09:22:39;8.20;97.00
10030;DHT22;5055;52.054;8.524;2024-02-23T09:25:08;8.10;97.00
10030;DHT22;5055;52.054;8.524;2024-02-23T09:27:36;7.90;97.00
10030;DHT22;5055;52.054;8.524;2024-02-23T09:30:13;7.80;97.00
10030;DHT22;5055;52.054;8.524;2024-02-23T09:32:41;7.80;97.00
10030;DHT22;5055;52.054;8.524;2024-02-23T09:35:11;7.80;97.00
10030;DHT22;5055;52.054;8.524;2024-02-23T09:37:39;7.80;97.00
10030;DHT22;5055;52.054;8.524;2024-02-23T09:40:09;7.80;97.00
10030;DHT22;5055;52.054;8.524;2024-02-23T09:42:38;7.80;97.00
10030;DHT22;5055;52.054;8.524;2024-02-23T09:45:07;7.80;97.00
10030;DHT22;5055;52.054;8.524;2024-02-23T09:47:38;7.80;97.00
10030;DHT22;5055;52.054;8.524;2024-02-23T09:50:09;7.90;97.00
10030;DHT22;5055;52.054;8.524;2024-02-23T09:52:39;7.80;97.00
10030;DHT22;5055;52.054;8.524;2024-02-23T09:55:08;7.80;97.00
10030;DHT22;5055;52.054;8.524;2024-02-23T09:57:37;7.80;97.00
10030;DHT22;5055;52.054;8.524;2024-02-23T10:00:07;7.80;97.00
10030;DHT22;5055;52.054;8.524;2024-02-23T10:02:37;7.80;97.00
10030;DHT22;5055;52.054;8.524;2024-02-23T10:05:10;7.80;97.00
10030;DHT22;5055;52.054;8.524;2024-02-23T10:07:40;7.80;97.00
10030;DHT22;5055;52.054;8.524;2024-02-23T10:10:10;7.80;97.00
10030;DHT22;5055;52.054;8.524;2024-02-23T10:12:38;7.80;97.00
10030;DHT22;5055;52.054;8.524;2024-02-23T10:15:07;7.80;97.00
10030;DHT22;5055;52.054;8.524;2024-02-23T10:17:38;7.80;97.00
10030;DHT22;5055;52.054;8.524;2024-02-23T10:20:07;7.80;97.00
10030;DHT22;5055;52.054;8.524;2024-02-23T10:22:36;7.80;97.00
10030;DHT22;5055;52.054;8.524;2024-02-23T10:25:04;7.90;97.00
10030;DHT22;5055;52.054;8.524;2024-02-23T10:27:33;7.90;97.00
10030;DHT22;5055;52.054;8.524;2024-02-23T10:30:01;8.00;97.00
10030;DHT22;5055;52.054;8.524;2024-02-23T10:32:30;7.90;97.00
10030;DHT22;5055;52.054;8.524;2024-02-23T10:35:01;8.00;97.00
10030;DHT22;5055;52.054;8.524;2024-02-23T10:37:31;7.90;97.00
10030;DHT22;5055;52.054;8.524;2024-02-23T10:40:01;8.00;97.00
10030;DHT22;5055;52.054;8.524;2024-02-23T10:42:33;8.00;97.00
10030;DHT22;5055;52.054;8.524;2024-02-23T10:45:02;8.00;97.00
10030;DHT22;5055;52.054;8.524;2024-02-23T10:47:32;8.00;97.00
10030;DHT22;5055;52.054;8.524;2024-02-23T10:50:03;8.00;97.00
10030;DHT22;5055;52.054;8.524;2024-02-23T10:52:32;8.10;97.00
10030;DHT22;5055;52.054;8.524;2024-02-23T10:55:01;8.00;97.00
10030;DHT22;5055;52.054;8.524;2024-02-23T10:57:31;8.10;97.00
10030;DHT22;5055;52.054;8.524;2024-02-23T11:00:00;8.20;97.00
10030;DHT22;5055;52.054;8.524;2024-02-23T11:02:35;8.20;97.00
10030;DHT22;5055;52.054;8.524;2024-02-23T11:05:06;8.20;97.00
10030;DHT22;5055;52.054;8.524;2024-02-23T11:07:38;8.30;97.00
10030;DHT22;5055;52.054;8.524;2024-02-23T11:10:07;8.40;97.00
10030;DHT22;5055;52.054;8.524;2024-02-23T11:12:36;8.50;97.00
10030;DHT22;5055;52.054;8.524;2024-02-23T11:15:05;8.60;97.00
10030;DHT22;5055;52.054;8.524;2024-02-23T11:17:35;8.70;97.00
10030;DHT22;5055;52.054;8.524;2024-02-23T11:20:06;8.90;97.00
10030;DHT22;5055;52.054;8.524;2024-02-23T11:22:36;8.90;97.00
10030;DHT22;5055;52.054;8.524;2024-02-23T11:25:07;9.00;97.00
10030;DHT22;5055;52.054;8.524;2024-02-23T11:27:38;9.00;97.00
10030;DHT22;5055;52.054;8.524;2024-02-23T11:30:08;9.10;97.00
10030;DHT22;5055;52.054;8.524;2024-02-23T11:32:38;9.00;97.00
10030;DHT22;5055;52.054;8.524;2024-02-23T11:35:11;8.90;97.00
10030;DHT22;5055;52.054;8.524;2024-02-23T11:37:46;8.90;97.00
10030;DHT22;5055;52.054;8.524;2024-02-23T11:40:15;9.00;97.00
10030;DHT22;5055;52.054;8.524;2024-02-23T11:42:45;9.00;97.00
10030;DHT22;5055;52.054;8.524;2024-02-23T11:45:14;8.90;97.00
10030;DHT22;5055;52.054;8.524;2024-02-23T11:47:42;9.00;97.00
10030;DHT22;5055;52.054;8.524;2024-02-23T11:50:13;9.00;97.00
10030;DHT22;5055;52.054;8.524;2024-02-23T11:52:41;9.00;97.00
10030;DHT22;5055;52.054;8.524;2024-02-23T11:55:10;9.00;97.00
10030;DHT22;5055;52.054;8.524;2024-02-23T11:57:38;9.00;97.00
10030;DHT22;5055;52.054;8.524;2024-02-23T12:00:14;9.00;97.00
10030;DHT22;5055;52.054;8.524;2024-02-23T12:02:43;9.00;97.00
10030;DHT22;5055;52.054;8.524;2024-02-23T12:05:15;9.00;97.00
10030;DHT22;5055;52.054;8.524;2024-02-23T12:07:43;9.00;97.00
10030;DHT22;5055;52.054;8.524;2024-02-23T12:10:14;9.10;97.00
10030;DHT22;5055;52.054;8.524;2024-02-23T12:12:42;9.10;97.00
10030;DHT22;5055;52.054;8.524;2024-02-23T12:15:11;9.10;97.00
10030;DHT22;5055;52.054;8.524;2024-02-23T12:17:46;9.10;97.00
10030;DHT22;5055;52.054;8.524;2024-02-23T12:20:16;9.20;97.00
10030;DHT22;5055;52.054;8.524;2024-02-23T12:22:46;9.30;97.00
10030;DHT22;5055;52.054;8.524;2024-02-23T12:25:14;9.40;97.00
10030;DHT22;5055;52.054;8.524;2024-02-23T12:27:43;9.40;97.00
10030;DHT22;5055;52.054;8.524;2024-02-23T12:30:13;9.40;97.00
10030;DHT22;5055;52.054;8.524;2024-02-23T12:32:42;9.40;97.00
10030;DHT22;5055;52.054;8.524;2024-02-23T12:35:11;9.50;97.00
10030;DHT22;5055;52.054;8.524;2024-02-23T12:37:43;9.40;97.00
10030;DHT22;5055;52.054;8.524;2024-02-23T12:40:13;9.40;97.00
10030;DHT22;5055;52.054;8.524;2024-02-23T12:42:41;9.40;97.00
10030;DHT22;5055;52.054;8.524;2024-02-23T12:45:11;9.40;97.00
10030;DHT22;5055;52.054;8.524;2024-02-23T12:47:39;9.40;97.00
10030;DHT22;5055;52.054;8.524;2024-02-23T12:50:08;9.40;97.00
10030;DHT22;5055;52.054;8.524;2024-02-23T12:52:37;9.40;97.00
10030;DHT22;5055;52.054;8.524;2024-02-23T12:55:07;9.60;97.00
10030;DHT22;5055;52.054;8.524;2024-02-23T12:57:35;9.70;97.00
10030;DHT22;5055;52.054;8.524;2024-02-23T13:00:04;9.80;97.00
10030;DHT22;5055;52.054;8.524;2024-02-23T13:02:32;10.20;97.00
10030;DHT22;5055;52.054;8.524;2024-02-23T13:05:00;10.40;97.00
10030;DHT22;5055;52.054;8.524;2024-02-23T13:07:29;10.60;97.00
10030;DHT22;5055;52.054;8.524;2024-02-23T13:09:57;10.60;97.00
10030;DHT22;5055;52.054;8.524;2024-02-23T13:12:27;10.40;97.00
10030;DHT22;5055;52.054;8.524;2024-02-23T13:14:55;10.10;97.00
10030;DHT22;5055;52.054;8.524;2024-02-23T13:17:23;10.00;97.00
10030;DHT22;5055;52.054;8.524;2024-02-23T13:19:52;9.80;97.00
10030;DHT22;5055;52.054;8.524;2024-02-23T13:22:37;9.80;97.00
10030;DHT22;5055;52.054;8.524;2024-02-23T13:25:05;9.70;97.00
10030;DHT22;5055;52.054;8.524;2024-02-23T13:27:35;9.80;97.00
10030;DHT22;5055;52.054;8.524;2024-02-23T13:30:04;9.80;97.00
10030;DHT22;5055;52.054;8.524;2024-02-23T13:32:34;9.80;97.00
10030;DHT22;5055;52.054;8.524;2024-02-23T13:35:02;9.80;97.00
10030;DHT22;5055;52.054;8.524;2024-02-23T13:37:31;9.80;97.00
10030;DHT22;5055;52.054;8.524;2024-02-23T13:40:00;9.70;97.00
10030;DHT22;5055;52.054;8.524;2024-02-23T13:42:28;9.60;97.00
10030;DHT22;5055;52.054;8.524;2024-02-23T13:44:58;9.60;97.00
10030;DHT22;5055;52.054;8.524;2024-02-23T13:47:27;9.60;97.00
10030;DHT22;5055;52.054;8.524;2024-02-23T13:49:55;9.60;97.00
10030;DHT22;5055;52.054;8.524;2024-02-23T13:52:23;9.50;97.00
10030;DHT22;5055;52.054;8.524;2024-02-23T13:54:52;9.50;97.00
10030;DHT22;5055;52.054;8.524;2024-02-23T13:57:20;9.40;97.00
10030;DHT22;5055;52.054;8.524;2024-02-23T13:59:48;9.40;97.00
10030;DHT22;5055;52.054;8.524;2024-02-23T14:02:25;9.30;97.00
10030;DHT22;5055;52.054;8.524;2024-02-23T14:04:59;9.20;97.00
10030;DHT22;5055;52.054;8.524;2024-02-23T14:07:28;9.10;97.00
10030;DHT22;5055;52.054;8.524;2024-02-23T14:09:56;9.00;97.00
10030;DHT22;5055;52.054;8.524;2024-02-23T14:12:25;9.00;97.00
10030;DHT22;5055;52.054;8.524;2024-02-23T14:14:53;9.00;97.00
10030;DHT22;5055;52.054;8.524;2024-02-23T14:17:23;9.00;97.00
10030;DHT22;5055;52.054;8.524;2024-02-23T14:19:51;9.00;97.00
10030;DHT22;5055;52.054;8.524;2024-02-23T14:22:20;9.10;97.00
10030;DHT22;5055;52.054;8.524;2024-02-23T14:24:48;9.00;97.00
10030;DHT22;5055;52.054;8.524;2024-02-23T14:27:16;8.90;97.00
10030;DHT22;5055;52.054;8.524;2024-02-23T14:29:46;8.90;97.00
10030;DHT22;5055;52.054;8.524;2024-02-23T14:32:16;8.90;97.00
10030;DHT22;5055;52.054;8.524;2024-02-23T14:34:46;8.80;97.00
10030;DHT22;5055;52.054;8.524;2024-02-23T14:37:14;8.80;97.00
10030;DHT22;5055;52.054;8.524;2024-02-23T14:39:43;8.80;97.00
10030;DHT22;5055;52.054;8.524;2024-02-23T14:42:13;8.80;97.00
10030;DHT22;5055;52.054;8.524;2024-02-23T14:44:41;8.80;97.00
10030;DHT22;5055;52.054;8.524;2024-02-23T14:47:10;8.80;97.00
10030;DHT22;5055;52.054;8.524;2024-02-23T14:49:39;8.80;97.00
10030;DHT22;5055;52.054;8.524;2024-02-23T14:52:09;8.80;97.00
10030;DHT22;5055;52.054;8.524;2024-02-23T14:54:40;8.80;97.00
10030;DHT22;5055;52.054;8.524;2024-02-23T14:57:08;8.80;97.00
10030;DHT22;5055;52.054;8.524;2024-02-23T14:59:37;8.80;97.00
10030;DHT22;5055;52.054;8.524;2024-02-23T15:02:18;8.80;97.00
10030;DHT22;5055;52.054;8.524;2024-02-23T15:04:47;8.80;97.00
10030;DHT22;5055;52.054;8.524;2024-02-23T15:07:17;8.70;97.00
10030;DHT22;5055;52.054;8.524;2024-02-23T15:09:45;8.70;97.00
10030;DHT22;5055;52.054;8.524;2024-02-23T15:12:13;8.60;97.00
10030;DHT22;5055;52.054;8.524;2024-02-23T15:14:42;8.50;97.00
10030;DHT22;5055;52.054;8.524;2024-02-23T15:17:10;8.40;97.00
10030;DHT22;5055;52.054;8.524;2024-02-23T15:19:38;8.30;97.00
10030;DHT22;5055;52.054;8.524;2024-02-23T15:22:07;8.20;97.00
10030;DHT22;5055;52.054;8.524;2024-02-23T15:24:42;8.20;97.00
10030;DHT22;5055;52.054;8.524;2024-02-23T15:27:12;8.20;97.00
10030;DHT22;5055;52.054;8.524;2024-02-23T15:29:41;8.10;97.00
10030;DHT22;5055;52.054;8.524;2024-02-23T15:32:09;8.00;97.00
10030;DHT22;5055;52.054;8.524;2024-02-23T15:34:38;8.00;97.00
10030;DHT22;5055;52.054;8.524;2024-02-23T15:37:06;8.00;97.00
10030;DHT22;5055;52.054;8.524;2024-02-23T15:39:35;8.00;97.00
10030;DHT22;5055;52.054;8.524;2024-02-23T15:42:05;8.00;97.00
10030;DHT22;5055;52.054;8.524;2024-02-23T15:44:35;8.00;97.00
10030;DHT22;5055;52.054;8.524;2024-02-23T15:47:03;8.00;97.00
10030;DHT22;5055;52.054;8.524;2024-02-23T15:49:31;8.10;97.00
10030;DHT22;5055;52.054;8.524;2024-02-23T15:52:19;8.10;97.00
10030;DHT22;5055;52.054;8.524;2024-02-23T15:54:48;8.10;97.00
10030;DHT22;5055;52.054;8.524;2024-02-23T15:57:17;8.10;97.00
10030;DHT22;5055;52.054;8.524;2024-02-23T15:59:47;8.10;97.00
10030;DHT22;5055;52.054;8.524;2024-02-23T16:02:28;8.00;97.00
10030;DHT22;5055;52.054;8.524;2024-02-23T16:04:57;8.00;97.00
10030;DHT22;5055;52.054;8.524;2024-02-23T16:07:25;8.00;97.00
10030;DHT22;5055;52.054;8.524;2024-02-23T16:09:54;8.00;97.00
10030;DHT22;5055;52.054;8.524;2024-02-23T16:12:23;8.00;97.00
10030;DHT22;5055;52.054;8.524;2024-02-23T16:14:51;8.00;97.00